sensor_id;sensor_type;location;lat;lon;timestamp;P1;durP1;ratioP1;P2;durP2;ratioP2
22937;SDS011;11634;42.734;23.298;2023-04-24T00:00:15;6.53;;;4.80;;
22937;SDS011;11634;42.734;23.298;2023-04-24T00:02:43;8.70;;;5.18;;
22937;SDS011;11634;42.734;23.298;2023-04-24T00:05:22;8.05;;;4.60;;
22937;SDS011;11634;42.734;23.298;2023-04-24T00:07:48;5.85;;;4.53;;
22937;SDS011;11634;42.734;23.298;2023-04-24T00:10:17;6.47;;;4.65;;
22937;SDS011;11634;42.734;23.298;2023-04-24T00:12:43;5.15;;;4.65;;
22937;SDS011;11634;42.734;23.298;2023-04-24T00:15:10;7.78;;;4.47;;
22937;SDS011;11634;42.734;23.298;2023-04-24T00:17:35;6.90;;;4.72;;
22937;SDS011;11634;42.734;23.298;2023-04-24T00:20:01;7.38;;;4.70;;
22937;SDS011;11634;42.734;23.298;2023-04-24T00:22:29;7.47;;;4.68;;
22937;SDS011;11634;42.734;23.298;2023-04-24T00:24:56;6.78;;;5.38;;
22937;SDS011;11634;42.734;23.298;2023-04-24T00:27:22;6.57;;;4.95;;
22937;SDS011;11634;42.734;23.298;2023-04-24T00:29:48;9.90;;;5.05;;
22937;SDS011;11634;42.734;23.298;2023-04-24T00:32:13;6.72;;;5.22;;
22937;SDS011;11634;42.734;23.298;2023-04-24T00:34:39;7.47;;;5.20;;
22937;SDS011;11634;42.734;23.298;2023-04-24T00:37:05;6.18;;;5.03;;
22937;SDS011;11634;42.734;23.298;2023-04-24T00:39:32;8.38;;;5.15;;
22937;SDS011;11634;42.734;23.298;2023-04-24T00:41:59;6.20;;;5.60;;
22937;SDS011;11634;42.734;23.298;2023-04-24T00:44:25;10.60;;;4.72;;
22937;SDS011;11634;42.734;23.298;2023-04-24T00:46:50;7.22;;;5.00;;
22937;SDS011;11634;42.734;23.298;2023-04-24T00:49:30;8.90;;;4.75;;
22937;SDS011;11634;42.734;23.298;2023-04-24T00:51:56;6.85;;;5.07;;
22937;SDS011;11634;42.734;23.298;2023-04-24T00:54:24;7.65;;;5.03;;
22937;SDS011;11634;42.734;23.298;2023-04-24T00:56:50;9.25;;;5.00;;
22937;SDS011;11634;42.734;23.298;2023-04-24T00:59:17;6.15;;;5.55;;
22937;SDS011;11634;42.734;23.298;2023-04-24T01:01:43;6.97;;;5.07;;
22937;SDS011;11634;42.734;23.298;2023-04-24T01:04:11;9.30;;;6.15;;
22937;SDS011;11634;42.734;23.298;2023-04-24T01:06:40;5.85;;;5.35;;
22937;SDS011;11634;42.734;23.298;2023-04-24T01:09:07;9.20;;;6.13;;
22937;SDS011;11634;42.734;23.298;2023-04-24T01:11:36;6.95;;;5.35;;
22937;SDS011;11634;42.734;23.298;2023-04-24T01:14:04;7.57;;;6.15;;
22937;SDS011;11634;42.734;23.298;2023-04-24T01:16:29;11.75;;;8.50;;
22937;SDS011;11634;42.734;23.298;2023-04-24T01:18:55;10.52;;;8.38;;
22937;SDS011;11634;42.734;23.298;2023-04-24T01:21:22;5.60;;;5.00;;
22937;SDS011;11634;42.734;23.298;2023-04-24T01:23:52;11.30;;;6.88;;
22937;SDS011;11634;42.734;23.298;2023-04-24T01:26:21;8.10;;;6.22;;
22937;SDS011;11634;42.734;23.298;2023-04-24T01:28:48;7.78;;;6.97;;
22937;SDS011;11634;42.734;23.298;2023-04-24T01:31:14;8.82;;;6.97;;
22937;SDS011;11634;42.734;23.298;2023-04-24T01:33:42;15.07;;;9.55;;
22937;SDS011;11634;42.734;23.298;2023-04-24T01:36:10;9.63;;;7.80;;
22937;SDS011;11634;42.734;23.298;2023-04-24T01:38:36;9.05;;;7.57;;
22937;SDS011;11634;42.734;23.298;2023-04-24T01:41:04;12.90;;;7.80;;
22937;SDS011;11634;42.734;23.298;2023-04-24T01:43:29;11.77;;;8.15;;
22937;SDS011;11634;42.734;23.298;2023-04-24T01:45:57;9.95;;;8.00;;
22937;SDS011;11634;42.734;23.298;2023-04-24T01:48:22;10.18;;;8.70;;
22937;SDS011;11634;42.734;23.298;2023-04-24T01:50:48;12.90;;;9.00;;
22937;SDS011;11634;42.734;23.298;2023-04-24T01:53:13;10.60;;;9.43;;
22937;SDS011;11634;42.734;23.298;2023-04-24T01:55:41;11.27;;;9.80;;
22937;SDS011;11634;42.734;23.298;2023-04-24T01:58:06;12.13;;;9.73;;
22937;SDS011;11634;42.734;23.298;2023-04-24T02:00:32;12.75;;;10.13;;
22937;SDS011;11634;42.734;23.298;2023-04-24T02:02:58;12.48;;;9.93;;
22937;SDS011;11634;42.734;23.298;2023-04-24T02:05:25;10.95;;;8.45;;
22937;SDS011;11634;42.734;23.298;2023-04-24T02:07:51;12.50;;;9.02;;
22937;SDS011;11634;42.734;23.298;2023-04-24T02:10:17;11.52;;;8.90;;
22937;SDS011;11634;42.734;23.298;2023-04-24T02:12:43;12.02;;;9.35;;
22937;SDS011;11634;42.734;23.298;2023-04-24T02:15:09;12.57;;;8.82;;
22937;SDS011;11634;42.734;23.298;2023-04-24T02:17:36;11.63;;;10.00;;
22937;SDS011;11634;42.734;23.298;2023-04-24T02:20:04;11.27;;;9.75;;
22937;SDS011;11634;42.734;23.298;2023-04-24T02:22:31;13.23;;;10.30;;
22937;SDS011;11634;42.734;23.298;2023-04-24T02:25:02;17.55;;;11.30;;
22937;SDS011;11634;42.734;23.298;2023-04-24T02:27:29;13.55;;;10.02;;
22937;SDS011;11634;42.734;23.298;2023-04-24T02:29:57;14.05;;;10.20;;
22937;SDS011;11634;42.734;23.298;2023-04-24T02:32:22;11.48;;;9.82;;
22937;SDS011;11634;42.734;23.298;2023-04-24T02:34:48;14.05;;;11.02;;
22937;SDS011;11634;42.734;23.298;2023-04-24T02:37:13;12.90;;;10.18;;
22937;SDS011;11634;42.734;23.298;2023-04-24T02:39:39;15.40;;;11.13;;
22937;SDS011;11634;42.734;23.298;2023-04-24T02:42:05;14.93;;;10.57;;
22937;SDS011;11634;42.734;23.298;2023-04-24T02:44:30;13.35;;;10.60;;
22937;SDS011;11634;42.734;23.298;2023-04-24T02:46:56;13.20;;;11.05;;
22937;SDS011;11634;42.734;23.298;2023-04-24T02:49:22;12.90;;;11.30;;
22937;SDS011;11634;42.734;23.298;2023-04-24T02:51:47;15.27;;;10.93;;
22937;SDS011;11634;42.734;23.298;2023-04-24T02:54:13;13.63;;;10.55;;
22937;SDS011;11634;42.734;23.298;2023-04-24T02:56:41;16.30;;;11.88;;
22937;SDS011;11634;42.734;23.298;2023-04-24T02:59:09;12.93;;;10.75;;
22937;SDS011;11634;42.734;23.298;2023-04-24T03:01:37;14.88;;;10.50;;
22937;SDS011;11634;42.734;23.298;2023-04-24T03:04:04;12.85;;;9.73;;
22937;SDS011;11634;42.734;23.298;2023-04-24T03:06:29;15.07;;;9.77;;
22937;SDS011;11634;42.734;23.298;2023-04-24T03:09:00;19.17;;;10.43;;
22937;SDS011;11634;42.734;23.298;2023-04-24T03:11:27;13.40;;;10.30;;
22937;SDS011;11634;42.734;23.298;2023-04-24T03:13:54;13.32;;;10.77;;
22937;SDS011;11634;42.734;23.298;2023-04-24T03:16:20;12.73;;;10.18;;
22937;SDS011;11634;42.734;23.298;2023-04-24T03:18:45;13.80;;;10.25;;
22937;SDS011;11634;42.734;23.298;2023-04-24T03:21:11;11.60;;;10.23;;
22937;SDS011;11634;42.734;23.298;2023-04-24T03:23:37;13.13;;;9.98;;
22937;SDS011;11634;42.734;23.298;2023-04-24T03:26:03;17.08;;;10.55;;
22937;SDS011;11634;42.734;23.298;2023-04-24T03:28:30;13.18;;;10.45;;
22937;SDS011;11634;42.734;23.298;2023-04-24T03:31:02;14.45;;;10.48;;
22937;SDS011;11634;42.734;23.298;2023-04-24T03:33:32;15.07;;;10.02;;
22937;SDS011;11634;42.734;23.298;2023-04-24T03:36:00;15.10;;;10.30;;
22937;SDS011;11634;42.734;23.298;2023-04-24T03:38:33;14.40;;;10.45;;
22937;SDS011;11634;42.734;23.298;2023-04-24T03:41:21;15.63;;;10.70;;
22937;SDS011;11634;42.734;23.298;2023-04-24T03:44:06;16.45;;;11.18;;
22937;SDS011;11634;42.734;23.298;2023-04-24T03:46:32;21.27;;;10.93;;
22937;SDS011;11634;42.734;23.298;2023-04-24T03:49:00;14.93;;;10.60;;
22937;SDS011;11634;42.734;23.298;2023-04-24T03:51:30;14.25;;;10.15;;
22937;SDS011;11634;42.734;23.298;2023-04-24T03:54:07;13.50;;;9.80;;
22937;SDS011;11634;42.734;23.298;2023-04-24T03:56:36;20.13;;;11.55;;
22937;SDS011;11634;42.734;23.298;2023-04-24T03:59:02;17.95;;;11.32;;
22937;SDS011;11634;42.734;23.298;2023-04-24T04:01:28;15.27;;;11.43;;
22937;SDS011;11634;42.734;23.298;2023-04-24T04:04:08;23.27;;;12.10;;
22937;SDS011;11634;42.734;23.298;2023-04-24T04:06:36;23.00;;;11.75;;
22937;SDS011;11634;42.734;23.298;2023-04-24T04:09:02;21.83;;;11.82;;
22937;SDS011;11634;42.734;23.298;2023-04-24T04:11:29;20.95;;;11.85;;
22937;SDS011;11634;42.734;23.298;2023-04-24T04:13:55;21.20;;;11.40;;
22937;SDS011;11634;42.734;23.298;2023-04-24T04:16:22;21.15;;;12.85;;
22937;SDS011;11634;42.734;23.298;2023-04-24T04:18:52;16.23;;;12.27;;
22937;SDS011;11634;42.734;23.298;2023-04-24T04:21:19;15.35;;;12.23;;
22937;SDS011;11634;42.734;23.298;2023-04-24T04:23:45;20.38;;;12.30;;
22937;SDS011;11634;42.734;23.298;2023-04-24T04:26:21;17.67;;;12.25;;
22937;SDS011;11634;42.734;23.298;2023-04-24T04:29:16;26.05;;;13.02;;
22937;SDS011;11634;42.734;23.298;2023-04-24T04:31:49;15.52;;;11.80;;
22937;SDS011;11634;42.734;23.298;2023-04-24T04:34:15;21.02;;;11.57;;
22937;SDS011;11634;42.734;23.298;2023-04-24T04:36:41;13.52;;;10.50;;
22937;SDS011;11634;42.734;23.298;2023-04-24T04:39:28;23.38;;;11.18;;
22937;SDS011;11634;42.734;23.298;2023-04-24T04:41:59;14.27;;;10.38;;
22937;SDS011;11634;42.734;23.298;2023-04-24T04:44:32;19.05;;;10.25;;
22937;SDS011;11634;42.734;23.298;2023-04-24T04:46:59;11.90;;;9.65;;
22937;SDS011;11634;42.734;23.298;2023-04-24T04:49:31;12.20;;;9.57;;
22937;SDS011;11634;42.734;23.298;2023-04-24T04:51:58;12.60;;;9.85;;
22937;SDS011;11634;42.734;23.298;2023-04-24T04:54:32;12.27;;;8.80;;
22937;SDS011;11634;42.734;23.298;2023-04-24T04:56:57;12.18;;;9.93;;
22937;SDS011;11634;42.734;23.298;2023-04-24T04:59:25;12.80;;;9.95;;
22937;SDS011;11634;42.734;23.298;2023-04-24T05:01:57;12.75;;;10.30;;
22937;SDS011;11634;42.734;23.298;2023-04-24T05:04:22;17.90;;;11.10;;
22937;SDS011;11634;42.734;23.298;2023-04-24T05:06:48;16.45;;;10.20;;
22937;SDS011;11634;42.734;23.298;2023-04-24T05:09:16;14.90;;;10.27;;
22937;SDS011;11634;42.734;23.298;2023-04-24T05:11:48;17.42;;;11.00;;
22937;SDS011;11634;42.734;23.298;2023-04-24T05:14:13;19.80;;;11.48;;
22937;SDS011;11634;42.734;23.298;2023-04-24T05:16:43;16.15;;;10.93;;
22937;SDS011;11634;42.734;23.298;2023-04-24T05:19:11;18.67;;;11.80;;
22937;SDS011;11634;42.734;23.298;2023-04-24T05:21:40;17.52;;;11.80;;
22937;SDS011;11634;42.734;23.298;2023-04-24T05:24:07;19.98;;;12.93;;
22937;SDS011;11634;42.734;23.298;2023-04-24T05:26:53;25.48;;;13.23;;
22937;SDS011;11634;42.734;23.298;2023-04-24T05:29:24;30.40;;;19.88;;
22937;SDS011;11634;42.734;23.298;2023-04-24T05:31:52;18.77;;;12.35;;
22937;SDS011;11634;42.734;23.298;2023-04-24T05:34:19;17.10;;;14.35;;
22937;SDS011;11634;42.734;23.298;2023-04-24T05:36:48;20.25;;;13.30;;
22937;SDS011;11634;42.734;23.298;2023-04-24T05:39:15;20.13;;;11.80;;
22937;SDS011;11634;42.734;23.298;2023-04-24T05:41:41;17.60;;;11.02;;
22937;SDS011;11634;42.734;23.298;2023-04-24T05:44:08;17.42;;;11.15;;
22937;SDS011;11634;42.734;23.298;2023-04-24T05:46:36;15.38;;;10.88;;
22937;SDS011;11634;42.734;23.298;2023-04-24T05:49:02;17.13;;;11.25;;
22937;SDS011;11634;42.734;23.298;2023-04-24T05:51:30;28.88;;;10.95;;
22937;SDS011;11634;42.734;23.298;2023-04-24T05:53:57;19.02;;;10.35;;
22937;SDS011;11634;42.734;23.298;2023-04-24T05:56:23;15.18;;;9.38;;
22937;SDS011;11634;42.734;23.298;2023-04-24T05:58:50;14.70;;;8.82;;
22937;SDS011;11634;42.734;23.298;2023-04-24T06:01:16;18.63;;;10.13;;
22937;SDS011;11634;42.734;23.298;2023-04-24T06:03:48;14.95;;;10.02;;
22937;SDS011;11634;42.734;23.298;2023-04-24T06:06:15;14.55;;;9.73;;
22937;SDS011;11634;42.734;23.298;2023-04-24T06:08:41;9.18;;;7.15;;
22937;SDS011;11634;42.734;23.298;2023-04-24T06:11:09;8.63;;;5.75;;
22937;SDS011;11634;42.734;23.298;2023-04-24T06:13:37;10.25;;;5.80;;
22937;SDS011;11634;42.734;23.298;2023-04-24T06:16:32;12.30;;;5.72;;
22937;SDS011;11634;42.734;23.298;2023-04-24T06:19:04;9.00;;;6.53;;
22937;SDS011;11634;42.734;23.298;2023-04-24T06:21:29;6.18;;;5.45;;
22937;SDS011;11634;42.734;23.298;2023-04-24T06:23:55;9.77;;;6.07;;
22937;SDS011;11634;42.734;23.298;2023-04-24T06:26:21;9.63;;;6.40;;
22937;SDS011;11634;42.734;23.298;2023-04-24T06:28:47;9.65;;;6.53;;
22937;SDS011;11634;42.734;23.298;2023-04-24T06:31:13;9.98;;;6.90;;
22937;SDS011;11634;42.734;23.298;2023-04-24T06:33:39;12.93;;;7.13;;
22937;SDS011;11634;42.734;23.298;2023-04-24T06:36:05;7.60;;;5.68;;
22937;SDS011;11634;42.734;23.298;2023-04-24T06:38:32;10.18;;;6.18;;
22937;SDS011;11634;42.734;23.298;2023-04-24T06:40:57;13.90;;;8.00;;
22937;SDS011;11634;42.734;23.298;2023-04-24T06:43:23;10.02;;;7.07;;
22937;SDS011;11634;42.734;23.298;2023-04-24T06:45:49;15.38;;;9.23;;
22937;SDS011;11634;42.734;23.298;2023-04-24T06:48:15;15.75;;;8.18;;
22937;SDS011;11634;42.734;23.298;2023-04-24T06:50:40;17.42;;;11.38;;
22937;SDS011;11634;42.734;23.298;2023-04-24T06:53:06;10.05;;;6.20;;
22937;SDS011;11634;42.734;23.298;2023-04-24T06:55:31;9.18;;;6.30;;
22937;SDS011;11634;42.734;23.298;2023-04-24T06:57:57;11.00;;;7.72;;
22937;SDS011;11634;42.734;23.298;2023-04-24T07:00:22;13.38;;;7.18;;
22937;SDS011;11634;42.734;23.298;2023-04-24T07:02:50;9.23;;;6.68;;
22937;SDS011;11634;42.734;23.298;2023-04-24T07:05:16;13.10;;;7.05;;
22937;SDS011;11634;42.734;23.298;2023-04-24T07:07:47;14.77;;;8.63;;
22937;SDS011;11634;42.734;23.298;2023-04-24T07:10:14;15.35;;;7.93;;
22937;SDS011;11634;42.734;23.298;2023-04-24T07:12:39;12.25;;;7.13;;
22937;SDS011;11634;42.734;23.298;2023-04-24T07:15:06;11.52;;;7.15;;
22937;SDS011;11634;42.734;23.298;2023-04-24T07:17:34;12.50;;;7.57;;
22937;SDS011;11634;42.734;23.298;2023-04-24T07:20:00;10.88;;;7.15;;
22937;SDS011;11634;42.734;23.298;2023-04-24T07:22:26;10.57;;;7.20;;
22937;SDS011;11634;42.734;23.298;2023-04-24T07:24:51;11.90;;;7.90;;
22937;SDS011;11634;42.734;23.298;2023-04-24T07:27:17;10.48;;;7.85;;
22937;SDS011;11634;42.734;23.298;2023-04-24T07:29:43;9.90;;;8.40;;
22937;SDS011;11634;42.734;23.298;2023-04-24T07:32:08;11.40;;;7.40;;
22937;SDS011;11634;42.734;23.298;2023-04-24T07:34:34;9.50;;;7.40;;
22937;SDS011;11634;42.734;23.298;2023-04-24T07:37:00;11.07;;;8.70;;
22937;SDS011;11634;42.734;23.298;2023-04-24T07:39:26;8.75;;;6.97;;
22937;SDS011;11634;42.734;23.298;2023-04-24T07:41:52;13.25;;;8.73;;
22937;SDS011;11634;42.734;23.298;2023-04-24T07:44:18;13.57;;;9.63;;
22937;SDS011;11634;42.734;23.298;2023-04-24T07:46:45;13.23;;;8.48;;
22937;SDS011;11634;42.734;23.298;2023-04-24T07:49:11;9.75;;;7.80;;
22937;SDS011;11634;42.734;23.298;2023-04-24T07:51:36;9.02;;;6.60;;
22937;SDS011;11634;42.734;23.298;2023-04-24T07:54:04;10.07;;;7.18;;
22937;SDS011;11634;42.734;23.298;2023-04-24T07:56:33;8.95;;;7.30;;
22937;SDS011;11634;42.734;23.298;2023-04-24T07:58:59;10.60;;;7.55;;
22937;SDS011;11634;42.734;23.298;2023-04-24T08:01:26;12.85;;;7.47;;
22937;SDS011;11634;42.734;23.298;2023-04-24T08:03:52;11.27;;;5.53;;
22937;SDS011;11634;42.734;23.298;2023-04-24T08:06:17;5.82;;;5.22;;
22937;SDS011;11634;42.734;23.298;2023-04-24T08:08:43;5.35;;;4.85;;
22937;SDS011;11634;42.734;23.298;2023-04-24T08:11:09;5.95;;;5.38;;
22937;SDS011;11634;42.734;23.298;2023-04-24T08:13:34;6.38;;;5.47;;
22937;SDS011;11634;42.734;23.298;2023-04-24T08:16:00;8.23;;;5.80;;
22937;SDS011;11634;42.734;23.298;2023-04-24T08:18:25;7.90;;;6.00;;
22937;SDS011;11634;42.734;23.298;2023-04-24T08:20:51;7.55;;;6.45;;
22937;SDS011;11634;42.734;23.298;2023-04-24T08:23:17;7.90;;;6.25;;
22937;SDS011;11634;42.734;23.298;2023-04-24T08:25:42;8.23;;;5.95;;
22937;SDS011;11634;42.734;23.298;2023-04-24T08:28:08;8.00;;;5.93;;
22937;SDS011;11634;42.734;23.298;2023-04-24T08:30:36;11.50;;;6.70;;
22937;SDS011;11634;42.734;23.298;2023-04-24T08:33:02;10.23;;;6.20;;
22937;SDS011;11634;42.734;23.298;2023-04-24T08:35:27;8.23;;;5.70;;
22937;SDS011;11634;42.734;23.298;2023-04-24T08:37:53;8.15;;;5.75;;
22937;SDS011;11634;42.734;23.298;2023-04-24T08:40:19;9.75;;;6.40;;
22937;SDS011;11634;42.734;23.298;2023-04-24T08:42:51;12.30;;;6.80;;
22937;SDS011;11634;42.734;23.298;2023-04-24T08:45:21;9.95;;;6.65;;
22937;SDS011;11634;42.734;23.298;2023-04-24T08:47:46;14.15;;;6.90;;
22937;SDS011;11634;42.734;23.298;2023-04-24T08:50:14;9.35;;;6.45;;
22937;SDS011;11634;42.734;23.298;2023-04-24T08:52:40;10.77;;;6.35;;
22937;SDS011;11634;42.734;23.298;2023-04-24T08:55:08;8.43;;;6.18;;
22937;SDS011;11634;42.734;23.298;2023-04-24T08:57:34;8.88;;;6.15;;
22937;SDS011;11634;42.734;23.298;2023-04-24T09:00:01;9.20;;;5.80;;
22937;SDS011;11634;42.734;23.298;2023-04-24T09:02:28;10.02;;;6.95;;
22937;SDS011;11634;42.734;23.298;2023-04-24T09:04:55;8.70;;;6.40;;
22937;SDS011;11634;42.734;23.298;2023-04-24T09:07:22;11.40;;;6.30;;
22937;SDS011;11634;42.734;23.298;2023-04-24T09:09:50;11.27;;;6.90;;
22937;SDS011;11634;42.734;23.298;2023-04-24T09:12:17;13.75;;;6.53;;
22937;SDS011;11634;42.734;23.298;2023-04-24T09:14:44;6.90;;;5.93;;
22937;SDS011;11634;42.734;23.298;2023-04-24T09:17:11;14.95;;;6.95;;
22937;SDS011;11634;42.734;23.298;2023-04-24T09:19:38;9.85;;;5.93;;
22937;SDS011;11634;42.734;23.298;2023-04-24T09:22:06;10.30;;;6.47;;
22937;SDS011;11634;42.734;23.298;2023-04-24T09:24:34;8.18;;;5.80;;
22937;SDS011;11634;42.734;23.298;2023-04-24T09:27:01;9.65;;;6.55;;
22937;SDS011;11634;42.734;23.298;2023-04-24T09:29:28;8.70;;;6.50;;
22937;SDS011;11634;42.734;23.298;2023-04-24T09:31:54;11.10;;;7.57;;
22937;SDS011;11634;42.734;23.298;2023-04-24T09:34:25;10.82;;;6.82;;
22937;SDS011;11634;42.734;23.298;2023-04-24T09:36:52;7.80;;;6.38;;
22937;SDS011;11634;42.734;23.298;2023-04-24T09:39:19;6.78;;;5.88;;
22937;SDS011;11634;42.734;23.298;2023-04-24T09:41:46;12.50;;;6.00;;
22937;SDS011;11634;42.734;23.298;2023-04-24T09:44:23;10.55;;;6.00;;
22937;SDS011;11634;42.734;23.298;2023-04-24T09:46:52;8.65;;;6.05;;
22937;SDS011;11634;42.734;23.298;2023-04-24T09:49:24;9.23;;;5.78;;
22937;SDS011;11634;42.734;23.298;2023-04-24T09:51:52;11.30;;;5.85;;
22937;SDS011;11634;42.734;23.298;2023-04-24T09:54:28;6.82;;;6.10;;
22937;SDS011;11634;42.734;23.298;2023-04-24T09:56:55;7.68;;;5.75;;
22937;SDS011;11634;42.734;23.298;2023-04-24T09:59:21;10.25;;;5.43;;
22937;SDS011;11634;42.734;23.298;2023-04-24T10:01:48;6.20;;;5.57;;
22937;SDS011;11634;42.734;23.298;2023-04-24T10:04:19;8.60;;;5.78;;
22937;SDS011;11634;42.734;23.298;2023-04-24T10:06:50;5.80;;;5.20;;
22937;SDS011;11634;42.734;23.298;2023-04-24T10:09:17;7.38;;;5.43;;
22937;SDS011;11634;42.734;23.298;2023-04-24T10:11:45;5.97;;;4.95;;
22937;SDS011;11634;42.734;23.298;2023-04-24T10:14:15;8.98;;;5.80;;
22937;SDS011;11634;42.734;23.298;2023-04-24T10:16:43;8.23;;;5.15;;
22937;SDS011;11634;42.734;23.298;2023-04-24T10:19:12;8.60;;;5.15;;
22937;SDS011;11634;42.734;23.298;2023-04-24T10:21:43;8.52;;;5.53;;
22937;SDS011;11634;42.734;23.298;2023-04-24T10:24:13;5.75;;;5.15;;
22937;SDS011;11634;42.734;23.298;2023-04-24T10:26:43;5.88;;;4.70;;
22937;SDS011;11634;42.734;23.298;2023-04-24T10:29:11;8.55;;;5.10;;
22937;SDS011;11634;42.734;23.298;2023-04-24T10:31:38;10.98;;;5.20;;
22937;SDS011;11634;42.734;23.298;2023-04-24T10:34:05;6.15;;;4.95;;
22937;SDS011;11634;42.734;23.298;2023-04-24T10:36:36;6.50;;;4.80;;
22937;SDS011;11634;42.734;23.298;2023-04-24T10:39:07;26.33;;;7.18;;
22937;SDS011;11634;42.734;23.298;2023-04-24T10:41:36;8.88;;;5.10;;
22937;SDS011;11634;42.734;23.298;2023-04-24T10:46:43;6.97;;;4.90;;
22937;SDS011;11634;42.734;23.298;2023-04-24T10:49:10;8.38;;;5.57;;
22937;SDS011;11634;42.734;23.298;2023-04-24T10:51:45;6.47;;;5.10;;
22937;SDS011;11634;42.734;23.298;2023-04-24T10:57:25;7.53;;;4.80;;
22937;SDS011;11634;42.734;23.298;2023-04-24T10:59:45;6.80;;;4.45;;
22937;SDS011;11634;42.734;23.298;2023-04-24T11:02:15;4.93;;;4.38;;
22937;SDS011;11634;42.734;23.298;2023-04-24T11:04:42;8.18;;;4.82;;
22937;SDS011;11634;42.734;23.298;2023-04-24T11:07:09;8.93;;;4.85;;
22937;SDS011;11634;42.734;23.298;2023-04-24T11:09:36;7.97;;;4.95;;
22937;SDS011;11634;42.734;23.298;2023-04-24T11:12:06;7.43;;;4.63;;
22937;SDS011;11634;42.734;23.298;2023-04-24T11:17:28;7.32;;;4.55;;
22937;SDS011;11634;42.734;23.298;2023-04-24T11:20:00;10.77;;;4.65;;
22937;SDS011;11634;42.734;23.298;2023-04-24T11:22:27;13.00;;;4.10;;
22937;SDS011;11634;42.734;23.298;2023-04-24T11:24:58;16.40;;;4.82;;
22937;SDS011;11634;42.734;23.298;2023-04-24T11:27:39;4.45;;;4.00;;
22937;SDS011;11634;42.734;23.298;2023-04-24T11:30:06;5.07;;;4.57;;
22937;SDS011;11634;42.734;23.298;2023-04-24T11:32:37;6.68;;;4.35;;
22937;SDS011;11634;42.734;23.298;2023-04-24T11:37:41;6.50;;;3.95;;
22937;SDS011;11634;42.734;23.298;2023-04-24T11:40:11;7.63;;;4.30;;
22937;SDS011;11634;42.734;23.298;2023-04-24T11:42:39;4.40;;;3.70;;
22937;SDS011;11634;42.734;23.298;2023-04-24T11:45:10;5.68;;;4.10;;
22937;SDS011;11634;42.734;23.298;2023-04-24T11:47:39;7.55;;;4.20;;
22937;SDS011;11634;42.734;23.298;2023-04-24T11:50:06;4.85;;;4.35;;
22937;SDS011;11634;42.734;23.298;2023-04-24T11:52:37;6.63;;;4.15;;
22937;SDS011;11634;42.734;23.298;2023-04-24T11:57:45;8.55;;;4.15;;
22937;SDS011;11634;42.734;23.298;2023-04-24T12:00:30;5.72;;;4.18;;
22937;SDS011;11634;42.734;23.298;2023-04-24T12:05:37;6.32;;;4.05;;
22937;SDS011;11634;42.734;23.298;2023-04-24T12:08:05;6.75;;;4.38;;
22937;SDS011;11634;42.734;23.298;2023-04-24T12:10:32;6.60;;;3.83;;
22937;SDS011;11634;42.734;23.298;2023-04-24T12:13:01;4.70;;;4.03;;
22937;SDS011;11634;42.734;23.298;2023-04-24T12:15:27;4.93;;;3.67;;
22937;SDS011;11634;42.734;23.298;2023-04-24T12:17:54;5.13;;;3.70;;
22937;SDS011;11634;42.734;23.298;2023-04-24T12:20:28;7.88;;;3.60;;
22937;SDS011;11634;42.734;23.298;2023-04-24T12:22:59;4.63;;;3.30;;
22937;SDS011;11634;42.734;23.298;2023-04-24T12:25:29;9.50;;;4.13;;
22937;SDS011;11634;42.734;23.298;2023-04-24T12:30:28;9.10;;;4.18;;
22937;SDS011;11634;42.734;23.298;2023-04-24T12:32:57;6.22;;;3.70;;
22937;SDS011;11634;42.734;23.298;2023-04-24T12:35:24;7.65;;;4.13;;
22937;SDS011;11634;42.734;23.298;2023-04-24T12:37:52;7.70;;;3.72;;
22937;SDS011;11634;42.734;23.298;2023-04-24T12:40:18;5.60;;;4.07;;
22937;SDS011;11634;42.734;23.298;2023-04-24T12:42:45;4.00;;;3.45;;
22937;SDS011;11634;42.734;23.298;2023-04-24T12:45:16;5.10;;;3.50;;
22937;SDS011;11634;42.734;23.298;2023-04-24T12:50:53;5.70;;;3.90;;
22937;SDS011;11634;42.734;23.298;2023-04-24T12:53:20;10.73;;;4.22;;
22937;SDS011;11634;42.734;23.298;2023-04-24T12:56:06;6.50;;;4.25;;
22937;SDS011;11634;42.734;23.298;2023-04-24T12:58:32;8.20;;;4.45;;
22937;SDS011;11634;42.734;23.298;2023-04-24T13:00:58;3.90;;;3.50;;
22937;SDS011;11634;42.734;23.298;2023-04-24T13:03:23;7.10;;;3.70;;
22937;SDS011;11634;42.734;23.298;2023-04-24T13:05:49;6.22;;;3.80;;
22937;SDS011;11634;42.734;23.298;2023-04-24T13:08:23;5.20;;;3.85;;
22937;SDS011;11634;42.734;23.298;2023-04-24T13:10:48;6.13;;;3.85;;
22937;SDS011;11634;42.734;23.298;2023-04-24T13:13:14;7.28;;;3.95;;
22937;SDS011;11634;42.734;23.298;2023-04-24T13:15:40;5.95;;;3.53;;
22937;SDS011;11634;42.734;23.298;2023-04-24T13:18:05;5.30;;;3.60;;
22937;SDS011;11634;42.734;23.298;2023-04-24T13:20:34;6.22;;;3.45;;
22937;SDS011;11634;42.734;23.298;2023-04-24T13:23:00;5.35;;;3.63;;
22937;SDS011;11634;42.734;23.298;2023-04-24T13:25:30;12.80;;;3.92;;
22937;SDS011;11634;42.734;23.298;2023-04-24T13:28:01;9.35;;;4.40;;
22937;SDS011;11634;42.734;23.298;2023-04-24T13:30:26;4.57;;;3.45;;
22937;SDS011;11634;42.734;23.298;2023-04-24T13:32:52;3.95;;;3.42;;
22937;SDS011;11634;42.734;23.298;2023-04-24T13:35:25;5.82;;;3.20;;
22937;SDS011;11634;42.734;23.298;2023-04-24T13:37:51;4.43;;;3.38;;
22937;SDS011;11634;42.734;23.298;2023-04-24T13:40:19;3.83;;;2.80;;
22937;SDS011;11634;42.734;23.298;2023-04-24T13:42:48;5.20;;;3.10;;
22937;SDS011;11634;42.734;23.298;2023-04-24T13:45:14;3.40;;;3.10;;
22937;SDS011;11634;42.734;23.298;2023-04-24T13:47:42;6.95;;;3.63;;
22937;SDS011;11634;42.734;23.298;2023-04-24T13:50:08;8.05;;;3.30;;
22937;SDS011;11634;42.734;23.298;2023-04-24T13:52:35;6.40;;;3.40;;
22937;SDS011;11634;42.734;23.298;2023-04-24T13:55:06;6.88;;;4.18;;
22937;SDS011;11634;42.734;23.298;2023-04-24T13:57:32;6.20;;;3.78;;
22937;SDS011;11634;42.734;23.298;2023-04-24T13:59:58;7.05;;;3.85;;
22937;SDS011;11634;42.734;23.298;2023-04-24T14:02:32;6.22;;;4.53;;
22937;SDS011;11634;42.734;23.298;2023-04-24T14:05:04;9.85;;;3.85;;
22937;SDS011;11634;42.734;23.298;2023-04-24T14:07:31;6.80;;;4.13;;
22937;SDS011;11634;42.734;23.298;2023-04-24T14:09:57;10.75;;;3.58;;
22937;SDS011;11634;42.734;23.298;2023-04-24T14:12:31;3.38;;;3.08;;
22937;SDS011;11634;42.734;23.298;2023-04-24T14:14:56;4.32;;;3.03;;
22937;SDS011;11634;42.734;23.298;2023-04-24T14:17:22;3.33;;;3.00;;
22937;SDS011;11634;42.734;23.298;2023-04-24T14:19:48;4.97;;;3.22;;
22937;SDS011;11634;42.734;23.298;2023-04-24T14:22:16;4.93;;;3.67;;
22937;SDS011;11634;42.734;23.298;2023-04-24T14:24:42;4.70;;;3.70;;
22937;SDS011;11634;42.734;23.298;2023-04-24T14:27:08;5.70;;;3.35;;
22937;SDS011;11634;42.734;23.298;2023-04-24T14:29:34;12.23;;;3.47;;
22937;SDS011;11634;42.734;23.298;2023-04-24T14:32:01;5.28;;;3.78;;
22937;SDS011;11634;42.734;23.298;2023-04-24T14:34:27;3.40;;;3.10;;
22937;SDS011;11634;42.734;23.298;2023-04-24T14:36:53;5.68;;;3.58;;
22937;SDS011;11634;42.734;23.298;2023-04-24T14:39:22;5.95;;;3.45;;
22937;SDS011;11634;42.734;23.298;2023-04-24T14:41:47;5.85;;;3.53;;
22937;SDS011;11634;42.734;23.298;2023-04-24T14:44:16;4.40;;;3.63;;
22937;SDS011;11634;42.734;23.298;2023-04-24T14:46:44;5.10;;;3.55;;
22937;SDS011;11634;42.734;23.298;2023-04-24T14:49:09;5.63;;;3.53;;
22937;SDS011;11634;42.734;23.298;2023-04-24T14:51:36;5.70;;;4.28;;